Main page
METAR-TAF:

METAR-TAF

Airports :

Barcelona–El Prat Airport

Barcelona, Spain

latitude: 41-17N, longitude: 002-04E, elevation: 4 m

Current weather observation

The report was made 33 minutes ago, at 12:00 UTC
Wind 13 kt from the South/Southwest
Temperature 28°C
Humidity 70%
Pressure 1017 hPa
Visibility 10 km or more
Few clouds at a height of 3000 ft

METAR: LEBL 251200Z 20013KT 9999 FEW030 28/22 Q1017 NOSIG

Time: 14:33 (12:33 UTC)

Forecast

The report was made 1 hour and 33 minutes ago, at 11:00 UTC
Forecast valid from 25 at 12 UTC to 26 at 12 UTC
Wind 10 kt from the South/Southwest
Visibility 10 km or more
Few clouds at a height of 3000 ft
Becoming
from 25 at 17 UTC to 25 at 19 UTC
Wind 3 kt from variable directions
Becoming
from 26 at 10 UTC to 26 at 12 UTC
Wind 12 kt from the South

TAF: LEBL 251100Z 2512/2612 20010KT 9999 FEW030 TX30/2512Z TN22/2605Z BECMG 2517/2519 VRB03KT BECMG 2610/2612 18012KT

Weather observations and forecasts of more than 4000 airports (METAR and TAF reports).

The available stations are represented by yellow and red dots on the map.

Hover mouse over dot to see the name of the station.

Then click to see weather observations and forecasts.

To change the map : click on the green buttons with a black cross to zoom in, on the green button with a dash to zoom out, or on the green arrows for adjacent maps.


METAR-TAF: